Time;durP1;ratioP1;P1;durP2;ratioP2;P2;SDS_P1;SDS_P2;PMS_P1;PMS_P2;Temp;Humidity;BMP_temperature;BMP_pressure;BME280_temperature;BME280_humidity;BME280_pressure;Samples;Min_cycle;Max_cycle;Signal;HPM_P1;HPM_P2
2022/01/04 06:01:03;;;;;;;3.17;0.93;;;11.40;99.90;;;;;;5664104;23;20055;-75
2022/01/04 06:03:30;;;;;;;2.50;0.68;;;11.50;99.90;;;;;;4955056;29;20142;-76
2022/01/04 06:05:59;;;;;;;1.98;0.80;;;11.40;99.90;;;;;;4957472;28;20151;-77
2022/01/04 06:08:31;;;;;;;2.10;0.73;;;11.40;99.90;;;;;;4957314;28;20134;-79
2022/01/04 06:10:59;;;;;;;1.90;0.60;;;11.50;99.90;;;;;;4957694;29;20142;-78
2022/01/04 06:16:12;;;;;;;1.55;0.60;;;11.50;99.90;;;;;;4927174;29;20051;-77
2022/01/04 06:18:41;;;;;;;2.90;0.70;;;11.50;99.90;;;;;;4951051;29;20548;-78
2022/01/04 06:21:09;;;;;;;1.83;0.60;;;11.50;99.90;;;;;;4957035;29;20050;-77
2022/01/04 06:23:36;;;;;;;1.38;0.50;;;11.50;99.90;;;;;;4957182;29;20129;-76
2022/01/04 06:26:03;;;;;;;3.28;0.70;;;11.60;99.90;;;;;;4957077;28;20043;-77
2022/01/04 06:28:30;;;;;;;2.13;0.70;;;11.60;99.90;;;;;;4950246;29;20093;-78
2022/01/04 06:30:57;;;;;;;1.83;0.70;;;11.60;99.90;;;;;;4957056;29;20489;-76
2022/01/04 06:33:25;;;;;;;1.30;0.60;;;11.60;99.90;;;;;;4956564;29;20055;-79
2022/01/04 06:35:53;;;;;;;2.30;0.68;;;11.70;99.90;;;;;;4957344;29;20122;-77
2022/01/04 06:38:19;;;;;;;1.80;0.65;;;11.70;99.90;;;;;;4956664;29;20604;-76
2022/01/04 06:40:46;;;;;;;1.75;0.70;;;11.70;99.90;;;;;;4957276;29;20047;-77
2022/01/04 06:43:14;;;;;;;1.58;0.70;;;11.80;99.90;;;;;;4956650;29;20053;-76
2022/01/04 06:45:41;;;;;;;1.17;0.45;;;11.80;99.90;;;;;;4957101;29;20048;-77
2022/01/04 06:48:08;;;;;;;1.80;0.60;;;11.80;99.90;;;;;;4957206;28;20115;-76
2022/01/04 06:50:36;;;;;;;1.60;0.60;;;11.80;99.90;;;;;;4959102;29;20130;-77
2022/01/04 06:53:03;;;;;;;2.28;0.50;;;11.90;99.90;;;;;;4956384;29;20054;-79
2022/01/04 06:55:30;;;;;;;1.10;0.47;;;11.90;99.90;;;;;;4949730;29;20043;-78
2022/01/04 06:57:57;;;;;;;1.30;0.55;;;11.90;99.90;;;;;;4956619;29;20052;-76
2022/01/04 07:00:24;;;;;;;1.25;0.40;;;12.00;99.90;;;;;;4956104;28;20154;-75
2022/01/04 07:02:51;;;;;;;1.23;0.52;;;12.00;99.90;;;;;;4956313;29;20047;-77
2022/01/04 07:05:18;;;;;;;3.13;0.60;;;12.00;99.90;;;;;;4956334;29;20147;-76
2022/01/04 07:07:47;;;;;;;0.95;0.45;;;12.10;99.90;;;;;;4956219;29;20138;-74
2022/01/04 07:10:14;;;;;;;0.85;0.40;;;12.10;99.90;;;;;;4956726;29;20134;-74
2022/01/04 07:12:41;;;;;;;0.88;0.40;;;12.20;99.90;;;;;;4956604;28;20130;-75
2022/01/04 07:15:09;;;;;;;1.23;0.50;;;12.20;99.90;;;;;;4954253;28;20079;-76
2022/01/04 07:17:41;;;;;;;1.20;0.40;;;12.20;99.90;;;;;;4965906;28;20054;-76
2022/01/04 07:20:10;;;;;;;1.17;0.50;;;12.30;99.90;;;;;;4966641;28;20556;-78
2022/01/04 07:22:37;;;;;;;1.15;0.50;;;12.30;99.90;;;;;;4961762;29;20047;-76
2022/01/04 07:25:08;;;;;;;1.05;0.43;;;12.30;99.90;;;;;;4955967;29;20440;-77
2022/01/04 07:27:36;;;;;;;1.30;0.40;;;12.40;99.90;;;;;;4955833;29;20086;-76
2022/01/04 07:30:05;;;;;;;1.33;0.60;;;12.50;99.90;;;;;;4954363;29;20058;-76
2022/01/04 07:32:32;;;;;;;1.13;0.50;;;12.50;99.90;;;;;;4953461;29;20051;-75
2022/01/04 07:34:59;;;;;;;1.92;0.60;;;12.50;99.90;;;;;;4955380;29;20055;-75
2022/01/04 07:37:26;;;;;;;1.92;0.60;;;12.40;99.90;;;;;;4955581;29;20043;-77
2022/01/04 07:39:53;;;;;;;1.88;0.45;;;12.50;99.90;;;;;;4950681;28;20040;-78
2022/01/04 07:42:22;;;;;;;3.15;0.73;;;12.60;99.90;;;;;;4959852;29;20086;-78
2022/01/04 07:44:49;;;;;;;0.95;0.35;;;12.50;99.90;;;;;;4956609;29;20043;-75
2022/01/04 07:47:17;;;;;;;2.50;0.70;;;12.50;99.90;;;;;;4955526;29;20139;-75
2022/01/04 07:49:44;;;;;;;1.38;0.50;;;12.60;99.90;;;;;;4954845;29;20090;-77
2022/01/04 07:52:11;;;;;;;1.70;0.63;;;12.60;99.90;;;;;;4955179;29;20051;-76
2022/01/04 07:54:38;;;;;;;1.80;0.60;;;12.60;99.90;;;;;;4954727;29;20047;-78
2022/01/04 07:57:05;;;;;;;1.90;0.73;;;12.60;99.90;;;;;;4955547;29;20054;-76
2022/01/04 07:59:34;;;;;;;1.88;0.80;;;12.60;99.90;;;;;;4953587;28;20053;-79
2022/01/04 08:02:01;;;;;;;2.08;0.70;;;12.60;99.90;;;;;;4954637;29;20412;-77
2022/01/04 08:04:28;;;;;;;3.22;0.70;;;12.60;99.90;;;;;;4953712;29;20072;-77
2022/01/04 08:06:55;;;;;;;1.67;0.70;;;12.50;99.90;;;;;;4950965;29;20043;-75
2022/01/04 08:09:22;;;;;;;1.90;0.80;;;12.60;99.90;;;;;;4951524;29;20053;-77
2022/01/04 08:11:51;;;;;;;1.67;0.70;;;12.60;99.90;;;;;;4955090;29;20051;-76
2022/01/04 08:14:18;;;;;;;1.92;0.77;;;12.50;99.90;;;;;;4954693;29;20409;-77
2022/01/04 08:16:46;;;;;;;1.80;0.70;;;12.60;99.90;;;;;;4954579;29;20548;-77
2022/01/04 08:19:13;;;;;;;3.33;0.88;;;12.60;99.90;;;;;;4952770;29;20472;-77
2022/01/04 08:21:40;;;;;;;2.50;0.70;;;12.60;99.90;;;;;;4949120;29;20130;-75
2022/01/04 08:24:08;;;;;;;2.13;0.82;;;12.60;99.90;;;;;;4954833;29;20399;-75
2022/01/04 08:26:36;;;;;;;1.67;0.80;;;12.60;99.90;;;;;;4954589;29;20043;-76
2022/01/04 08:29:03;;;;;;;1.85;0.70;;;12.50;99.90;;;;;;4954501;29;20054;-75
2022/01/04 08:31:30;;;;;;;2.53;0.90;;;12.60;99.90;;;;;;4954794;29;20043;-78
2022/01/04 08:33:59;;;;;;;2.22;0.88;;;12.60;99.90;;;;;;4955093;29;20131;-77
2022/01/04 08:36:28;;;;;;;2.00;0.77;;;12.50;99.90;;;;;;4958924;29;20043;-75
2022/01/04 08:38:55;;;;;;;3.05;0.90;;;12.60;99.90;;;;;;4958238;29;20536;-74
2022/01/04 08:41:22;;;;;;;2.35;0.70;;;12.60;99.90;;;;;;4956969;29;20053;-74
2022/01/04 08:43:49;;;;;;;1.80;0.80;;;12.60;99.90;;;;;;4954880;29;20125;-75
2022/01/04 08:46:16;;;;;;;2.17;0.90;;;12.60;99.90;;;;;;4954634;29;20404;-75
2022/01/04 08:48:43;;;;;;;2.58;0.95;;;12.60;99.90;;;;;;4953204;29;20045;-76
2022/01/04 08:51:12;;;;;;;2.58;0.98;;;12.60;99.90;;;;;;4953479;29;20053;-78
2022/01/04 08:53:39;;;;;;;2.95;1.20;;;12.60;99.90;;;;;;4954333;29;20131;-76
2022/01/04 08:56:06;;;;;;;1.85;0.75;;;12.70;99.90;;;;;;4949749;29;20130;-75
2022/01/04 08:58:34;;;;;;;2.80;0.90;;;12.70;99.90;;;;;;4953949;29;20058;-78
2022/01/04 09:01:02;;;;;;;2.67;1.00;;;12.70;99.90;;;;;;4953657;29;20057;-76
2022/01/04 09:03:30;;;;;;;2.25;0.90;;;12.70;99.90;;;;;;4946995;29;20489;-76
2022/01/04 09:05:58;;;;;;;2.20;0.82;;;12.80;99.90;;;;;;4954101;29;20168;-76
2022/01/04 09:08:26;;;;;;;2.30;0.90;;;12.80;99.90;;;;;;4954006;29;20133;-76
2022/01/04 09:10:54;;;;;;;4.28;1.00;;;12.80;99.90;;;;;;4954774;28;20058;-75
2022/01/04 09:13:22;;;;;;;2.83;0.90;;;12.80;99.90;;;;;;4957399;29;20485;-74
2022/01/04 09:18:46;;;;;;;1.98;0.90;;;12.80;99.90;;;;;;4957603;29;20106;-77
2022/01/04 09:21:15;;;;;;;3.55;0.80;;;12.90;99.90;;;;;;4956284;29;20051;-77
2022/01/04 09:23:46;;;;;;;3.13;1.10;;;13.00;99.90;;;;;;4956630;28;20504;-74
2022/01/04 09:26:14;;;;;;;2.40;1.00;;;13.00;99.90;;;;;;4952541;29;20047;-75
2022/01/04 09:28:42;;;;;;;3.67;1.00;;;13.10;99.90;;;;;;4960113;29;20121;-75
2022/01/04 09:31:10;;;;;;;1.98;0.90;;;13.00;99.90;;;;;;4958363;29;20047;-76
2022/01/04 09:33:37;;;;;;;2.53;0.70;;;13.10;99.90;;;;;;4958079;29;20137;-77
2022/01/04 09:36:05;;;;;;;2.92;1.15;;;13.10;99.90;;;;;;4958003;29;20416;-79
2022/01/04 09:38:32;;;;;;;2.80;1.13;;;13.10;99.90;;;;;;4960109;28;20051;-80
2022/01/04 09:41:01;;;;;;;3.25;1.20;;;13.20;99.90;;;;;;4960344;29;20106;-78
2022/01/04 09:43:28;;;;;;;2.55;0.90;;;13.20;99.90;;;;;;4962649;29;20470;-76
2022/01/04 09:45:55;;;;;;;2.35;0.80;;;13.10;99.90;;;;;;4958074;28;20131;-77
2022/01/04 09:48:22;;;;;;;2.58;0.80;;;13.20;99.90;;;;;;4957433;29;20055;-75
2022/01/04 09:50:50;;;;;;;3.03;1.25;;;13.20;99.90;;;;;;4958017;28;20054;-76
2022/01/04 09:53:20;;;;;;;2.45;0.90;;;13.10;99.90;;;;;;4957547;29;20137;-76
2022/01/04 09:55:49;;;;;;;2.53;0.80;;;13.10;99.90;;;;;;4957325;28;20039;-74
2022/01/04 09:58:20;;;;;;;2.90;1.00;;;13.20;99.90;;;;;;4963428;28;20603;-75
2022/01/04 10:00:48;;;;;;;3.30;1.00;;;13.10;99.90;;;;;;4957569;29;20409;-76
2022/01/04 10:03:19;;;;;;;3.25;1.00;;;13.20;99.90;;;;;;4954693;29;20074;-76
2022/01/04 10:05:47;;;;;;;4.50;1.10;;;13.20;99.90;;;;;;4955430;29;20392;-75
2022/01/04 10:08:15;;;;;;;2.65;1.00;;;13.10;99.90;;;;;;4957220;29;20508;-75
2022/01/04 10:10:43;;;;;;;2.40;0.90;;;13.10;99.90;;;;;;4957778;29;20047;-76
2022/01/04 10:13:15;;;;;;;2.42;1.08;;;13.20;99.90;;;;;;4957149;29;20055;-74
2022/01/04 10:15:47;;;;;;;2.80;1.10;;;13.20;99.90;;;;;;4955437;29;20098;-74
2022/01/04 10:18:24;;;;;;;5.57;1.08;;;13.10;99.90;;;;;;4956819;29;20142;-74
2022/01/04 10:21:12;;;;;;;3.08;1.13;;;13.10;99.90;;;;;;4956319;29;20548;-77
2022/01/04 10:23:49;;;;;;;2.88;1.00;;;13.20;99.90;;;;;;4950721;29;20048;-78
2022/01/04 10:26:18;;;;;;;2.60;1.25;;;13.20;99.90;;;;;;4955815;29;20150;-80
2022/01/04 10:28:47;;;;;;;4.13;1.30;;;13.20;99.90;;;;;;4957398;29;20140;-75
2022/01/04 10:31:18;;;;;;;3.33;1.23;;;13.20;99.90;;;;;;4956353;29;20074;-78
2022/01/04 10:33:45;;;;;;;2.63;1.13;;;13.20;99.90;;;;;;4957367;29;20130;-76
2022/01/04 10:36:13;;;;;;;4.07;1.27;;;13.10;99.90;;;;;;4957544;29;20055;-75
2022/01/04 10:38:42;;;;;;;3.67;1.15;;;13.10;99.90;;;;;;4938507;29;20150;-75
2022/01/04 10:41:12;;;;;;;4.50;1.50;;;13.20;99.90;;;;;;4943853;28;20057;-75
2022/01/04 10:43:41;;;;;;;4.38;1.60;;;13.10;99.90;;;;;;4957162;29;20051;-76
2022/01/04 10:46:09;;;;;;;2.92;1.20;;;13.10;99.90;;;;;;4957217;29;20051;-79
2022/01/04 10:48:41;;;;;;;3.00;1.30;;;13.20;99.90;;;;;;4957202;29;20134;-79
2022/01/04 10:51:11;;;;;;;4.20;1.40;;;13.20;99.90;;;;;;4958151;29;20401;-75
2022/01/04 10:53:41;;;;;;;3.90;1.70;;;13.30;99.90;;;;;;4957262;29;20051;-74
2022/01/04 10:56:10;;;;;;;3.22;1.20;;;13.30;99.90;;;;;;4954680;29;20122;-76
2022/01/04 10:58:40;;;;;;;3.33;1.48;;;13.40;99.90;;;;;;4956769;29;20150;-79
2022/01/04 11:01:11;;;;;;;3.58;1.25;;;13.40;99.90;;;;;;4955348;28;20065;-79
2022/01/04 11:03:43;;;;;;;4.22;1.50;;;13.40;99.90;;;;;;4957072;29;20146;-80
2022/01/04 11:06:14;;;;;;;5.13;1.50;;;13.40;99.90;;;;;;4957341;28;20134;-76
2022/01/04 11:08:43;;;;;;;3.47;1.52;;;13.60;99.90;;;;;;4956231;29;20059;-78
2022/01/04 11:11:11;;;;;;;3.83;1.45;;;13.40;99.90;;;;;;4954352;28;20145;-79
2022/01/04 11:13:38;;;;;;;4.90;1.65;;;13.60;99.90;;;;;;4949768;29;20043;-77
2022/01/04 11:16:06;;;;;;;3.72;1.35;;;13.60;99.90;;;;;;4957912;28;20137;-78
2022/01/04 11:18:40;;;;;;;3.53;1.50;;;13.60;99.90;;;;;;4956554;29;20082;-77
2022/01/04 11:21:13;;;;;;;3.45;1.40;;;13.50;99.90;;;;;;4953809;29;20048;-78
2022/01/04 11:23:42;;;;;;;4.15;1.50;;;13.60;99.90;;;;;;4957276;29;20047;-77
2022/01/04 11:26:11;;;;;;;5.07;1.50;;;13.60;99.90;;;;;;4956830;29;20083;-78
2022/01/04 11:28:43;;;;;;;4.07;1.40;;;13.60;99.90;;;;;;4956167;29;20125;-78
2022/01/04 11:31:44;;;;;;;3.45;1.40;;;13.60;99.90;;;;;;4956467;28;20130;-80
2022/01/04 11:34:18;;;;;;;3.92;1.70;;;13.60;99.90;;;;;;4954025;28;20055;-77
2022/01/04 11:36:51;;;;;;;4.53;1.80;;;13.50;99.90;;;;;;4955980;29;20075;-77
2022/01/04 11:39:30;;;;;;;5.18;1.70;;;13.50;99.90;;;;;;4956103;29;20047;-79
2022/01/04 11:41:58;;;;;;;3.40;1.30;;;13.60;99.90;;;;;;4956383;28;20134;-79
2022/01/04 11:44:31;;;;;;;2.92;1.30;;;13.50;99.90;;;;;;4955920;29;20122;-78
2022/01/04 11:47:08;;;;;;;4.25;1.58;;;13.50;99.90;;;;;;4956025;29;20070;-78
2022/01/04 11:49:38;;;;;;;4.05;1.42;;;13.40;99.90;;;;;;4948524;29;20046;-77
2022/01/04 11:52:10;;;;;;;3.83;1.38;;;13.40;99.90;;;;;;4954863;29;20054;-76
2022/01/04 11:54:37;;;;;;;3.15;1.60;;;13.40;99.90;;;;;;4955917;29;20480;-79
2022/01/04 11:57:08;;;;;;;3.50;1.30;;;13.40;99.90;;;;;;4955635;29;20398;-77
2022/01/04 11:59:44;;;;;;;4.85;1.60;;;13.40;99.90;;;;;;4955023;29;20586;-76
2022/01/04 12:02:31;;;;;;;3.60;1.33;;;13.30;99.90;;;;;;4955100;29;20062;-78
2022/01/04 12:04:59;;;;;;;3.00;1.38;;;13.40;99.90;;;;;;4949749;29;20059;-78
2022/01/04 12:07:56;;;;;;;3.95;1.50;;;13.40;99.90;;;;;;4952756;29;20142;-80
2022/01/04 12:10:38;;;;;;;6.50;1.60;;;13.40;99.90;;;;;;4952425;29;20126;-81
2022/01/04 12:13:09;;;;;;;3.80;1.55;;;13.30;99.90;;;;;;4951856;29;20488;-80
2022/01/04 12:15:58;;;;;;;3.38;1.60;;;13.30;99.90;;;;;;4953333;29;20054;-78
2022/01/04 12:19:01;;;;;;;3.13;1.17;;;13.40;99.90;;;;;;4952387;29;20481;-78
2022/01/04 12:21:45;;;;;;;3.47;1.50;;;13.30;99.90;;;;;;4950069;29;20051;-80
2022/01/04 12:24:24;;;;;;;3.78;1.83;;;13.30;99.90;;;;;;4948565;29;20535;-78
2022/01/04 12:27:10;;;;;;;5.25;1.40;;;13.30;99.90;;;;;;4951889;29;20126;-78
2022/01/04 12:29:37;;;;;;;4.93;1.42;;;13.30;99.90;;;;;;4947546;29;20500;-75
2022/01/04 12:32:08;;;;;;;4.28;1.38;;;13.30;99.90;;;;;;4950872;29;20126;-78
2022/01/04 12:34:51;;;;;;;5.20;2.10;;;13.30;99.90;;;;;;4945898;28;20142;-78
2022/01/04 12:37:20;;;;;;;4.00;1.80;;;13.20;99.90;;;;;;4950446;29;20054;-77
2022/01/04 12:39:51;;;;;;;4.55;2.03;;;13.20;99.90;;;;;;4951519;29;20078;-79
2022/01/04 12:42:19;;;;;;;3.95;1.60;;;13.20;99.90;;;;;;4949225;29;20149;-77
2022/01/04 12:44:59;;;;;;;4.15;1.50;;;13.30;99.90;;;;;;4951190;28;20054;-79
2022/01/04 12:47:29;;;;;;;4.93;1.70;;;13.20;99.90;;;;;;4950185;29;20490;-80
2022/01/04 12:50:02;;;;;;;3.10;1.35;;;13.10;99.90;;;;;;4951356;29;20618;-78
2022/01/04 12:52:29;;;;;;;4.45;1.50;;;13.30;99.90;;;;;;4943990;29;20058;-75
2022/01/04 12:54:58;;;;;;;3.70;1.50;;;13.20;99.90;;;;;;4950474;29;20050;-80
2022/01/04 12:57:26;;;;;;;4.25;1.50;;;13.20;99.90;;;;;;4950391;28;20142;-78
2022/01/04 12:59:55;;;;;;;6.75;2.80;;;13.20;99.90;;;;;;4950377;29;20528;-80
2022/01/04 13:02:25;;;;;;;2.80;1.30;;;13.10;99.90;;;;;;4950869;29;20142;-79
2022/01/04 13:04:56;;;;;;;4.82;1.30;;;13.10;99.90;;;;;;4951471;29;20040;-76
2022/01/04 13:07:31;;;;;;;3.05;1.30;;;13.10;99.90;;;;;;4950493;29;20090;-80
2022/01/04 13:10:09;;;;;;;3.30;1.40;;;13.10;99.90;;;;;;4948585;28;20133;-77
2022/01/04 13:12:40;;;;;;;4.22;1.50;;;13.20;99.90;;;;;;4947831;29;20043;-78
2022/01/04 13:15:11;;;;;;;4.38;1.40;;;13.10;99.90;;;;;;4950075;29;20052;-78
2022/01/04 13:17:43;;;;;;;3.13;1.27;;;13.10;99.90;;;;;;4949364;29;20054;-78
2022/01/04 13:20:13;;;;;;;3.63;1.67;;;13.10;99.90;;;;;;4950376;29;20572;-78
2022/01/04 13:22:41;;;;;;;4.43;1.60;;;13.10;99.90;;;;;;4949754;29;20058;-79
2022/01/04 13:25:10;;;;;;;3.45;1.23;;;13.00;99.90;;;;;;4949856;29;20140;-75
2022/01/04 13:27:39;;;;;;;4.60;1.40;;;13.00;99.90;;;;;;4951662;28;21036;-78
2022/01/04 13:30:12;;;;;;;3.10;1.38;;;13.00;99.90;;;;;;4950717;29;20055;-77
2022/01/04 13:32:41;;;;;;;3.50;1.45;;;13.00;99.90;;;;;;4950351;29;20049;-77
2022/01/04 13:35:12;;;;;;;3.67;1.25;;;13.00;99.90;;;;;;4949648;29;20150;-80
2022/01/04 13:37:40;;;;;;;3.78;1.13;;;12.90;99.90;;;;;;4951067;29;20075;-79
2022/01/04 13:40:12;;;;;;;3.03;1.10;;;13.00;99.90;;;;;;4950263;29;20047;-79
2022/01/04 13:42:42;;;;;;;3.67;1.00;;;12.90;99.90;;;;;;4950343;29;20043;-76
2022/01/04 13:45:22;;;;;;;3.22;1.50;;;12.90;99.90;;;;;;4948406;29;20134;-77
2022/01/04 13:47:54;;;;;;;3.35;1.13;;;12.90;99.90;;;;;;4947631;29;20158;-80
2022/01/04 13:50:34;;;;;;;2.72;1.10;;;12.80;99.90;;;;;;4950126;29;20055;-79
2022/01/04 13:53:12;;;;;;;3.63;1.00;;;12.90;99.90;;;;;;4950531;29;20065;-77
2022/01/04 13:56:01;;;;;;;3.30;1.10;;;12.80;99.90;;;;;;4944337;29;20342;-78
2022/01/04 13:58:53;;;;;;;2.78;1.10;;;12.90;99.90;;;;;;4945425;29;20126;-77
2022/01/04 14:01:27;;;;;;;3.63;1.45;;;12.80;99.90;;;;;;4952926;29;20135;-77
2022/01/04 14:03:57;;;;;;;8.00;3.47;;;12.80;99.90;;;;;;4950054;29;20080;-77
2022/01/04 14:06:33;;;;;;;6.18;1.80;;;12.80;99.90;;;;;;4953288;29;20039;-76
2022/01/04 14:09:02;;;;;;;3.50;1.10;;;12.90;99.90;;;;;;4954104;29;20531;-77
2022/01/04 14:11:36;;;;;;;3.65;1.25;;;12.80;99.90;;;;;;4955272;29;20094;-76
2022/01/04 14:14:12;;;;;;;3.80;1.50;;;12.90;99.90;;;;;;4954274;29;20138;-78
2022/01/04 14:16:48;;;;;;;3.03;1.38;;;12.90;99.90;;;;;;4951205;29;20134;-75
2022/01/04 14:19:18;;;;;;;4.55;1.40;;;12.80;99.90;;;;;;4952985;29;20130;-75
2022/01/04 14:21:54;;;;;;;3.20;1.20;;;12.80;99.90;;;;;;4955235;29;20134;-79
2022/01/04 14:24:43;;;;;;;3.65;1.40;;;12.80;99.90;;;;;;4954241;29;20058;-78
2022/01/04 14:27:30;;;;;;;3.13;1.30;;;12.70;99.90;;;;;;4950346;29;20047;-78
2022/01/04 14:30:01;;;;;;;6.72;1.67;;;12.70;99.90;;;;;;4954194;29;20126;-76
2022/01/04 14:32:30;;;;;;;3.83;1.15;;;12.80;99.90;;;;;;4946735;29;20379;-77
2022/01/04 14:35:00;;;;;;;3.25;1.15;;;12.70;99.90;;;;;;4953970;29;20046;-77
2022/01/04 14:37:28;;;;;;;4.10;1.23;;;12.60;99.90;;;;;;4950168;29;20079;-78
2022/01/04 14:39:57;;;;;;;2.83;1.10;;;12.70;99.90;;;;;;4953308;29;20126;-80
2022/01/04 14:42:26;;;;;;;3.42;1.33;;;12.70;99.90;;;;;;4953884;29;20509;-80
2022/01/04 14:44:53;;;;;;;3.20;1.10;;;12.60;99.90;;;;;;4953584;29;20043;-79
2022/01/04 14:47:20;;;;;;;2.95;1.23;;;12.60;99.90;;;;;;4952916;29;20082;-78
2022/01/04 14:49:47;;;;;;;4.38;1.15;;;12.60;99.90;;;;;;4955082;29;20134;-76
2022/01/04 14:52:15;;;;;;;4.22;1.17;;;12.60;99.90;;;;;;4956219;29;20126;-77
2022/01/04 14:54:42;;;;;;;2.85;1.20;;;12.50;99.90;;;;;;4955363;29;20134;-79
2022/01/04 14:57:09;;;;;;;4.97;1.45;;;12.50;99.90;;;;;;4957268;29;20134;-75
2022/01/04 14:59:37;;;;;;;3.25;1.23;;;12.50;99.90;;;;;;4957003;29;20132;-78
2022/01/04 15:02:10;;;;;;;2.60;0.60;;;12.50;99.90;;;;;;4953305;29;20061;-77
2022/01/04 15:04:38;;;;;;;1.00;0.30;;;12.40;99.90;;;;;;4953537;29;20043;-78
2022/01/04 15:07:05;;;;;;;2.47;0.38;;;12.10;99.90;;;;;;4955892;29;20158;-79
2022/01/04 15:09:33;;;;;;;1.15;0.30;;;11.80;99.90;;;;;;4956541;28;20055;-77
2022/01/04 15:12:00;;;;;;;1.48;0.50;;;11.50;99.90;;;;;;4953663;29;20138;-76
2022/01/04 15:14:27;;;;;;;2.03;0.70;;;11.20;99.90;;;;;;4953424;29;20146;-79
2022/01/04 15:16:55;;;;;;;2.42;0.80;;;10.90;99.90;;;;;;4953428;29;20070;-79
2022/01/04 15:19:22;;;;;;;0.98;0.45;;;10.60;99.90;;;;;;4953578;29;20129;-77
2022/01/04 15:21:49;;;;;;;0.80;0.38;;;10.40;99.90;;;;;;4954347;29;20676;-78
2022/01/04 15:24:18;;;;;;;2.25;0.40;;;10.20;99.90;;;;;;4953462;28;20067;-76
2022/01/04 15:26:45;;;;;;;1.58;0.70;;;10.00;99.90;;;;;;4953285;29;20199;-75
2022/01/04 15:29:12;;;;;;;1.85;0.57;;;9.80;99.90;;;;;;4953650;29;20158;-77
2022/01/04 15:31:40;;;;;;;1.88;0.60;;;9.70;99.90;;;;;;4953243;29;20146;-77
2022/01/04 15:34:08;;;;;;;1.38;0.60;;;9.60;99.90;;;;;;4953734;29;20404;-76
2022/01/04 15:36:36;;;;;;;1.63;0.63;;;9.50;99.90;;;;;;4954437;29;20047;-78
2022/01/04 15:39:03;;;;;;;1.42;0.50;;;9.40;99.90;;;;;;4953582;29;20532;-77
2022/01/04 15:41:30;;;;;;;2.45;0.70;;;9.40;99.90;;;;;;4949056;29;20131;-76
2022/01/04 15:43:58;;;;;;;1.38;0.60;;;9.20;99.90;;;;;;4955775;29;20142;-76
2022/01/04 15:46:26;;;;;;;2.13;0.80;;;9.20;99.90;;;;;;4956511;29;20047;-77
2022/01/04 15:48:53;;;;;;;1.65;0.70;;;9.30;99.90;;;;;;4956931;29;20039;-77
2022/01/04 15:51:21;;;;;;;2.30;0.88;;;9.20;99.90;;;;;;4955230;29;20138;-77
2022/01/04 15:53:48;;;;;;;3.15;1.15;;;9.20;99.90;;;;;;4951892;28;20055;-77
2022/01/04 15:56:15;;;;;;;1.25;0.50;;;9.20;99.90;;;;;;4951976;29;20078;-76
2022/01/04 15:58:42;;;;;;;1.08;0.50;;;9.20;99.90;;;;;;4951893;28;20473;-77
2022/01/04 16:01:09;;;;;;;1.20;0.60;;;9.20;99.90;;;;;;4951587;29;20055;-75
2022/01/04 16:03:37;;;;;;;1.10;0.60;;;9.10;99.90;;;;;;4952453;28;20043;-75
2022/01/04 16:06:04;;;;;;;2.78;0.60;;;9.00;99.90;;;;;;4952272;29;20103;-74
2022/01/04 16:08:33;;;;;;;1.45;0.60;;;9.00;99.90;;;;;;4956247;29;20126;-78
2022/01/04 16:11:00;;;;;;;2.88;0.70;;;8.80;99.90;;;;;;4954174;28;20051;-75
2022/01/04 16:13:28;;;;;;;1.17;0.52;;;8.80;99.90;;;;;;4956153;28;20134;-77
2022/01/04 16:16:00;;;;;;;0.85;0.40;;;8.60;99.90;;;;;;4954254;28;20434;-75
2022/01/04 16:18:39;;;;;;;1.50;0.70;;;8.60;99.90;;;;;;4954363;28;20051;-75
2022/01/04 16:21:33;;;;;;;1.38;0.60;;;8.60;99.90;;;;;;4954053;28;20453;-75
2022/01/04 16:24:04;;;;;;;1.73;0.80;;;8.50;99.90;;;;;;4953203;29;20062;-77
2022/01/04 16:26:34;;;;;;;1.98;0.75;;;8.40;99.90;;;;;;4946906;29;20043;-76
2022/01/04 16:29:05;;;;;;;1.52;0.70;;;8.40;99.90;;;;;;4952284;28;20053;-75
2022/01/04 16:31:33;;;;;;;1.05;0.57;;;8.30;99.90;;;;;;4944799;29;20397;-76
2022/01/04 16:34:00;;;;;;;1.83;0.98;;;8.30;99.90;;;;;;4951614;29;20058;-76
2022/01/04 16:36:30;;;;;;;1.92;0.82;;;8.30;99.90;;;;;;4952409;28;20053;-80
2022/01/04 16:38:58;;;;;;;2.22;0.90;;;8.30;99.90;;;;;;4951922;29;20560;-77
2022/01/04 16:41:27;;;;;;;2.03;0.80;;;8.30;99.90;;;;;;4951374;29;20135;-75
2022/01/04 16:43:54;;;;;;;2.40;0.90;;;8.40;99.90;;;;;;4951502;29;20134;-78
2022/01/04 16:46:21;;;;;;;2.05;0.90;;;8.50;99.90;;;;;;4953513;29;20187;-80
2022/01/04 16:48:49;;;;;;;2.63;1.20;;;8.40;99.90;;;;;;4955669;29;20133;-80
2022/01/04 16:51:18;;;;;;;3.00;1.10;;;8.50;99.90;;;;;;4952279;28;20043;-78
2022/01/04 16:53:45;;;;;;;2.38;1.10;;;8.40;99.90;;;;;;4955522;29;20039;-77
2022/01/04 16:56:12;;;;;;;2.08;0.88;;;8.50;99.90;;;;;;4955327;29;20086;-78
2022/01/04 16:58:42;;;;;;;3.05;1.00;;;8.40;99.90;;;;;;4954916;29;20102;-76
2022/01/04 17:01:09;;;;;;;2.10;1.00;;;8.40;99.90;;;;;;4953757;29;20086;-81
2022/01/04 17:03:36;;;;;;;2.65;1.20;;;8.40;99.90;;;;;;4947982;29;20139;-78
2022/01/04 17:06:03;;;;;;;2.47;1.10;;;8.30;99.90;;;;;;4951010;29;20087;-76
2022/01/04 17:08:33;;;;;;;2.30;0.98;;;8.30;99.90;;;;;;4948356;29;20469;-76
2022/01/04 17:11:06;;;;;;;2.30;1.15;;;8.40;99.90;;;;;;4948062;29;20075;-77
2022/01/04 17:16:20;;;;;;;2.90;1.30;;;8.30;99.90;;;;;;4949979;29;20066;-77
2022/01/04 17:18:48;;;;;;;3.08;1.50;;;8.40;99.90;;;;;;4950389;29;20058;-77
2022/01/04 17:21:16;;;;;;;3.10;1.60;;;8.40;99.90;;;;;;4950132;29;20072;-77
2022/01/04 17:23:45;;;;;;;3.40;1.52;;;8.40;99.90;;;;;;4952895;29;20062;-76
2022/01/04 17:26:13;;;;;;;3.67;1.58;;;8.30;99.90;;;;;;4954464;29;20043;-76
2022/01/04 17:28:40;;;;;;;3.08;1.50;;;8.30;99.90;;;;;;4952396;29;20043;-78
2022/01/04 17:31:08;;;;;;;3.45;1.50;;;8.30;99.90;;;;;;4950873;28;20505;-80
2022/01/04 17:33:37;;;;;;;3.17;1.40;;;8.30;99.90;;;;;;4954645;29;20054;-78
2022/01/04 17:36:06;;;;;;;2.85;1.42;;;8.20;99.90;;;;;;4955297;29;20059;-75
2022/01/04 17:38:33;;;;;;;3.70;1.70;;;8.40;99.90;;;;;;4947042;28;20139;-78
2022/01/04 17:41:01;;;;;;;3.42;1.58;;;8.30;99.90;;;;;;4950218;28;20131;-74
2022/01/04 17:43:28;;;;;;;3.85;2.00;;;8.40;99.90;;;;;;4954371;29;20051;-76
2022/01/04 17:45:57;;;;;;;3.42;1.55;;;8.40;99.90;;;;;;4954824;29;20047;-77
2022/01/04 17:48:26;;;;;;;3.42;1.80;;;8.40;99.90;;;;;;4954116;28;20047;-75
2022/01/04 17:50:54;;;;;;;2.90;1.20;;;8.50;99.90;;;;;;4954537;28;20094;-77
2022/01/04 17:53:22;;;;;;;3.42;1.70;;;8.50;99.90;;;;;;4953377;28;20401;-78
2022/01/04 17:55:49;;;;;;;8.55;4.00;;;8.40;99.90;;;;;;4952808;28;20070;-76
2022/01/04 17:58:17;;;;;;;7.63;3.30;;;8.30;99.90;;;;;;4954286;28;20090;-79
2022/01/04 18:00:44;;;;;;;4.70;1.70;;;8.40;99.90;;;;;;4941281;29;20056;-76
2022/01/04 18:03:11;;;;;;;2.58;1.00;;;8.30;99.90;;;;;;4938793;29;20523;-76
2022/01/04 18:05:39;;;;;;;2.10;0.90;;;8.30;99.90;;;;;;4955301;29;20146;-75
2022/01/04 18:08:09;;;;;;;2.33;0.80;;;8.30;99.90;;;;;;4952572;28;20106;-76
2022/01/04 18:10:37;;;;;;;2.42;0.82;;;8.30;99.90;;;;;;4939094;29;20122;-77
2022/01/04 18:13:05;;;;;;;2.03;0.85;;;8.20;99.90;;;;;;4949838;29;20051;-76
2022/01/04 18:15:32;;;;;;;1.77;0.70;;;8.20;99.90;;;;;;4940195;29;20086;-77
2022/01/04 18:17:59;;;;;;;3.35;1.00;;;8.20;99.90;;;;;;4952267;29;20047;-77
2022/01/04 18:20:27;;;;;;;2.67;0.80;;;8.10;99.90;;;;;;4950468;28;20043;-78
2022/01/04 18:22:54;;;;;;;2.42;1.00;;;8.10;99.90;;;;;;4952917;29;20047;-75
2022/01/04 18:25:24;;;;;;;2.10;0.80;;;8.10;99.90;;;;;;4954026;29;20051;-76
2022/01/04 18:27:52;;;;;;;2.58;1.13;;;8.10;99.90;;;;;;4947247;29;20058;-75
2022/01/04 18:30:21;;;;;;;2.55;0.95;;;8.00;99.90;;;;;;4954282;29;20071;-76
2022/01/04 18:32:48;;;;;;;1.65;0.77;;;8.00;99.90;;;;;;4954742;29;20047;-77
2022/01/04 18:35:16;;;;;;;3.17;1.00;;;8.00;99.90;;;;;;4953884;29;20785;-77
2022/01/04 18:37:43;;;;;;;1.80;0.70;;;8.00;99.90;;;;;;4954132;29;20486;-76
2022/01/04 18:40:11;;;;;;;2.03;0.75;;;8.10;99.90;;;;;;4954382;29;20055;-77
2022/01/04 18:42:40;;;;;;;1.65;0.70;;;8.10;99.90;;;;;;4953346;28;20055;-75
2022/01/04 18:45:13;;;;;;;3.00;1.30;;;8.10;99.90;;;;;;4954337;29;20043;-75
2022/01/04 18:47:41;;;;;;;2.13;1.00;;;8.20;99.90;;;;;;4954009;29;20043;-77
2022/01/04 18:50:10;;;;;;;3.63;1.30;;;8.00;99.90;;;;;;4951225;29;20047;-78
2022/01/04 18:52:38;;;;;;;3.20;1.73;;;7.90;99.90;;;;;;4950681;29;20098;-78
2022/01/04 18:55:07;;;;;;;5.10;2.67;;;7.80;99.90;;;;;;4951376;28;20131;-77
2022/01/04 18:57:34;;;;;;;6.47;3.03;;;7.70;99.90;;;;;;4953859;29;20126;-77
2022/01/04 19:00:05;;;;;;;8.60;4.28;;;7.60;99.90;;;;;;4953490;29;20047;-76
2022/01/04 19:02:32;;;;;;;3.92;2.05;;;7.40;99.90;;;;;;4945945;29;20142;-76
2022/01/04 19:04:59;;;;;;;3.97;2.10;;;7.40;99.90;;;;;;4953470;29;20465;-75
2022/01/04 19:07:27;;;;;;;17.50;9.15;;;7.30;99.90;;;;;;4953504;29;20138;-76
2022/01/04 19:09:55;;;;;;;22.42;10.45;;;7.10;99.90;;;;;;4953527;28;20872;-75
2022/01/04 19:12:22;;;;;;;6.50;2.88;;;7.10;99.90;;;;;;4955333;29;20134;-76